TimeCDT,TemperatureF,Dew PointF,Humidity,Sea Level PressureIn,VisibilityMPH,Wind Direction,Wind SpeedMPH,Gust SpeedMPH,PrecipitationIn,Events,Conditions,WindDirDegrees,DateUTC
12:15 AM,74.1,72.1,94,30.20,10.0,Calm,Calm,-,N/A,,Clear,0,2013-07-18 05:15:00
12:35 AM,73.6,71.6,93,30.20,10.0,Calm,Calm,-,N/A,,Clear,0,2013-07-18 05:35:00
12:55 AM,73.0,71.2,94,30.20,10.0,Calm,Calm,-,N/A,,Clear,0,2013-07-18 05:55:00
1:15 AM,72.7,71.1,95,30.19,10.0,Calm,Calm,-,N/A,,Clear,0,2013-07-18 06:15:00
1:35 AM,72.9,71.1,94,30.19,10.0,Calm,Calm,-,N/A,,Clear,0,2013-07-18 06:35:00
1:55 AM,72.3,70.7,95,30.19,7.0,Calm,Calm,-,N/A,,Clear,0,2013-07-18 06:55:00
2:15 AM,72.1,70.3,94,30.19,10.0,Calm,Calm,-,N/A,,Clear,0,2013-07-18 07:15:00
2:35 AM,72.9,71.1,94,30.18,10.0,Calm,Calm,-,N/A,,Clear,0,2013-07-18 07:35:00
2:55 AM,72.3,70.5,94,30.18,10.0,Calm,Calm,-,N/A,,Clear,0,2013-07-18 07:55:00
3:15 AM,72.7,70.7,93,30.18,10.0,Calm,Calm,-,N/A,,Clear,0,2013-07-18 08:15:00
3:35 AM,73.2,70.5,91,30.18,10.0,Calm,Calm,-,N/A,,Clear,0,2013-07-18 08:35:00
3:55 AM,71.8,69.6,93,30.17,10.0,Calm,Calm,-,N/A,,Clear,0,2013-07-18 08:55:00
4:15 AM,72.0,70.0,93,30.17,10.0,Calm,Calm,-,N/A,,Clear,0,2013-07-18 09:15:00
4:35 AM,72.9,70.7,93,30.17,10.0,Calm,Calm,-,N/A,,Clear,0,2013-07-18 09:35:00
4:55 AM,73.2,69.6,88,30.16,10.0,Calm,Calm,-,N/A,,Clear,0,2013-07-18 09:55:00
5:15 AM,73.6,70.9,91,30.16,10.0,Calm,Calm,-,N/A,,Clear,0,2013-07-18 10:15:00
5:35 AM,74.7,70.3,86,30.15,10.0,Calm,Calm,-,N/A,,Clear,0,2013-07-18 10:35:00
5:55 AM,75.6,71.2,86,30.15,10.0,Calm,Calm,-,N/A,,Clear,0,2013-07-18 10:55:00
6:15 AM,72.3,70.2,93,30.14,7.0,Calm,Calm,-,N/A,,Clear,0,2013-07-18 11:15:00
6:35 AM,74.8,72.7,93,30.14,10.0,Calm,Calm,-,N/A,,Clear,0,2013-07-18 11:35:00
6:55 AM,78.6,72.9,82,30.14,10.0,WSW,3.5,-,N/A,,Clear,250,2013-07-18 11:55:00
7:15 AM,80.1,72.5,78,30.13,10.0,SW,3.5,-,N/A,,Clear,220,2013-07-18 12:15:00
7:35 AM,81.9,72.3,73,30.13,10.0,WSW,3.5,-,N/A,,Clear,240,2013-07-18 12:35:00
7:55 AM,83.3,72.1,69,30.13,10.0,West,4.6,-,N/A,,Clear,260,2013-07-18 12:55:00
8:15 AM,84.4,70.7,63,30.13,10.0,WSW,5.8,-,N/A,,Clear,240,2013-07-18 13:15:00
8:35 AM,85.8,70.3,60,30.14,10.0,WSW,6.9,-,N/A,,Clear,240,2013-07-18 13:35:00
8:55 AM,86.9,70.9,59,30.13,10.0,SW,8.1,-,N/A,,Clear,230,2013-07-18 13:55:00
9:15 AM,88.0,70.7,56,30.13,10.0,WSW,5.8,-,N/A,,Clear,240,2013-07-18 14:15:00
9:35 AM,88.2,69.4,54,30.12,10.0,SW,9.2,-,N/A,,Clear,230,2013-07-18 14:35:00
9:55 AM,89.1,69.3,52,30.12,10.0,WSW,9.2,-,N/A,,Clear,240,2013-07-18 14:55:00
10:15 AM,89.8,68.9,50,30.12,10.0,WSW,9.2,-,N/A,,Clear,250,2013-07-18 15:15:00
10:35 AM,89.6,70.2,53,30.11,10.0,SW,10.4,-,N/A,,Clear,230,2013-07-18 15:35:00
10:55 AM,90.9,69.1,49,30.11,10.0,WSW,10.4,-,N/A,,Clear,250,2013-07-18 15:55:00
11:15 AM,91.2,68.9,48,30.10,10.0,WSW,9.2,-,N/A,,Clear,250,2013-07-18 16:15:00
11:35 AM,91.4,68.2,46,30.10,10.0,SW,10.4,-,N/A,,Scattered Clouds,230,2013-07-18 16:35:00
11:55 AM,92.7,67.8,44,30.10,10.0,WSW,12.7,-,N/A,,Scattered Clouds,250,2013-07-18 16:55:00
12:15 PM,92.5,67.1,43,30.10,10.0,WSW,9.2,-,N/A,,Scattered Clouds,240,2013-07-18 17:15:00
12:35 PM,92.1,68.5,46,30.09,10.0,WSW,8.1,-,N/A,,Scattered Clouds,250,2013-07-18 17:35:00
12:55 PM,91.8,67.6,45,30.08,10.0,West,12.7,-,N/A,,Clear,260,2013-07-18 17:55:00
1:15 PM,93.0,66.4,41,30.07,10.0,SW,12.7,20.7,N/A,,Clear,230,2013-07-18 18:15:00
1:35 PM,93.2,67.1,42,30.06,10.0,SW,9.2,-,N/A,,Clear,230,2013-07-18 18:35:00
1:55 PM,93.2,66.7,42,30.05,10.0,WSW,15.0,20.7,N/A,,Clear,240,2013-07-18 18:55:00
2:15 PM,93.4,66.7,41,30.05,10.0,SW,9.2,20.7,N/A,,Scattered Clouds,230,2013-07-18 19:15:00
2:35 PM,93.7,67.1,41,30.04,10.0,SW,12.7,19.6,N/A,,Scattered Clouds,230,2013-07-18 19:35:00
2:55 PM,93.0,66.6,42,30.03,10.0,SW,11.5,18.4,N/A,,Scattered Clouds,220,2013-07-18 19:55:00
3:15 PM,93.2,66.6,41,30.02,10.0,SW,13.8,20.7,N/A,,Scattered Clouds,230,2013-07-18 20:15:00
3:35 PM,90.7,67.1,46,30.02,10.0,SW,12.7,19.6,N/A,,Scattered Clouds,230,2013-07-18 20:35:00
3:55 PM,93.7,66.2,40,30.01,10.0,WSW,13.8,19.6,N/A,,Scattered Clouds,240,2013-07-18 20:55:00
4:15 PM,92.7,66.0,41,30.00,10.0,SW,12.7,19.6,N/A,,Scattered Clouds,230,2013-07-18 21:15:00
5:15 PM,91.2,66.2,44,29.99,10.0,SW,13.8,-,N/A,,Clear,230,2013-07-18 22:15:00
5:35 PM,91.6,64.9,41,29.98,10.0,SW,15.0,20.7,N/A,,Clear,230,2013-07-18 22:35:00
5:55 PM,92.5,67.1,43,29.97,10.0,SW,10.4,17.3,N/A,,Scattered Clouds,230,2013-07-18 22:55:00
6:15 PM,91.4,66.7,44,29.97,10.0,SW,10.4,-,N/A,,Scattered Clouds,230,2013-07-18 23:15:00
6:35 PM,90.5,67.1,46,29.96,10.0,SW,12.7,-,N/A,,Clear,220,2013-07-18 23:35:00
6:55 PM,89.8,68.0,49,29.95,10.0,SW,12.7,16.1,N/A,,Scattered Clouds,230,2013-07-18 23:55:00
7:15 PM,89.1,68.2,50,29.95,10.0,SW,9.2,-,N/A,,Clear,230,2013-07-19 00:15:00
7:35 PM,88.2,68.0,51,29.95,10.0,SW,9.2,-,N/A,,Clear,230,2013-07-19 00:35:00
7:55 PM,87.1,68.7,54,29.94,10.0,SW,5.8,-,N/A,,Clear,230,2013-07-19 00:55:00
8:15 PM,-9999,-9999,N/A,29.94,10.0,SW,6.9,-,N/A,,Clear,230,2013-07-19 01:15:00
8:35 PM,84.2,69.4,61,29.93,10.0,SW,6.9,-,N/A,,Clear,220,2013-07-19 01:35:00
8:55 PM,83.8,69.4,62,29.93,10.0,SW,8.1,-,N/A,,Clear,220,2013-07-19 01:55:00
9:15 PM,83.7,69.4,62,29.93,10.0,SW,9.2,-,N/A,,Clear,220,2013-07-19 02:15:00
9:35 PM,83.3,69.1,62,29.93,10.0,SW,6.9,-,N/A,,Clear,220,2013-07-19 02:35:00
9:55 PM,82.8,68.9,63,29.94,10.0,SW,9.2,-,N/A,,Clear,220,2013-07-19 02:55:00
10:15 PM,81.9,69.3,65,29.94,10.0,SW,8.1,-,N/A,,Clear,220,2013-07-19 03:15:00
10:35 PM,81.5,69.4,67,29.94,10.0,SW,6.9,-,N/A,,Clear,230,2013-07-19 03:35:00
10:55 PM,81.1,69.8,68,29.93,10.0,SW,8.1,-,N/A,,Clear,220,2013-07-19 03:55:00
11:15 PM,81.0,69.8,69,29.93,10.0,SW,8.1,-,N/A,,Clear,230,2013-07-19 04:15:00
11:35 PM,81.1,69.8,68,29.93,10.0,SW,9.2,-,N/A,,Clear,230,2013-07-19 04:35:00
11:55 PM,81.0,69.4,68,29.92,10.0,SW,8.1,-,N/A,,Clear,220,2013-07-19 04:55:00